メインページ
METAR-TAF:

METAR-TAF

空港 :

ベイルート, レバノン

緯度: 33-49N, 経度: 035-29E, 海抜: 29m

現時点の気象観測

当レポートは1時間2分前の11:00(UTC)に作成
西/南西の風 11kt
気温 20°C
湿度 53%
気圧 1017 hPa
視程: 8000m
高度2600ftの千切れ雲あり

METAR: OLBA 231100Z 24011KT 8000 BKN026 20/10 Q1017

時間: 15:02 (12:02 UTC)

予報

当レポートは2時間2分前の10:00(UTC)に作成
予報は23日の 12時(UTC)から 24日の 18時(UTC)まで有効
西/南西の風 10kt、最大25ktの突風を伴う
視程: 7000m
高度2600ftの千切れ雲あり
確率 30% :
23日の 12時(UTC)から 23日の 15時(UTC)まで一時的に
霧雨
23日の 20時(UTC)から 23日の 22時(UTC)まで徐々に
の風 8kt
24日の 06時(UTC)から 24日の 08時(UTC)まで徐々に
西/南西の風 14kt
視程: 8000m
高度2600ftの雲は散在している

TAF: OLBA 231000Z 2312/2418 25010G25KT 7000 BKN026 PROB30 TEMPO 2312/2315 DZ BECMG 2320/2322 17008KT BECMG 2406/2408 24014KT 8000 SCT026

4,000以上の空港の気象観測と天気予報(METAR報とTAF報)

利用可能な観測所は地図上に黄色い丸と赤い丸で示す。

丸の上にカーソルを重ねると観測所名を参照できる。

次にクリックすると気象観測と天気予報を参照できる。

マップの切り替え:黒色「×」印の緑ボタンをクリックして拡大、「-」印の緑ボタンをクリックして縮小、緑色の三角印をクリックして隣りの地図に切り替え


METAR-TAF: